sensor_id;sensor_type;location;lat;lon;timestamp;P1;durP1;ratioP1;P2;durP2;ratioP2
16870;SDS011;8552;48.120;-1.456;2024-01-11T00:01:15;44.00;;;23.83;;
16870;SDS011;8552;48.120;-1.456;2024-01-11T00:03:40;46.83;;;25.60;;
16870;SDS011;8552;48.120;-1.456;2024-01-11T00:06:06;45.53;;;23.73;;
16870;SDS011;8552;48.120;-1.456;2024-01-11T00:08:32;41.67;;;22.90;;
16870;SDS011;8552;48.120;-1.456;2024-01-11T00:10:57;43.63;;;23.73;;
16870;SDS011;8552;48.120;-1.456;2024-01-11T00:13:23;44.53;;;23.33;;
16870;SDS011;8552;48.120;-1.456;2024-01-11T00:15:49;45.70;;;23.47;;
16870;SDS011;8552;48.120;-1.456;2024-01-11T00:18:15;47.03;;;23.27;;
16870;SDS011;8552;48.120;-1.456;2024-01-11T00:20:40;44.67;;;23.67;;
16870;SDS011;8552;48.120;-1.456;2024-01-11T00:23:06;47.20;;;23.47;;
16870;SDS011;8552;48.120;-1.456;2024-01-11T00:25:31;46.93;;;23.67;;
16870;SDS011;8552;48.120;-1.456;2024-01-11T00:27:57;41.97;;;22.83;;
16870;SDS011;8552;48.120;-1.456;2024-01-11T00:30:23;45.23;;;24.60;;
16870;SDS011;8552;48.120;-1.456;2024-01-11T00:32:48;46.33;;;23.13;;
16870;SDS011;8552;48.120;-1.456;2024-01-11T00:35:14;41.97;;;23.60;;
16870;SDS011;8552;48.120;-1.456;2024-01-11T00:37:39;40.13;;;22.70;;
16870;SDS011;8552;48.120;-1.456;2024-01-11T00:40:06;49.10;;;23.27;;
16870;SDS011;8552;48.120;-1.456;2024-01-11T00:42:32;44.63;;;23.83;;
16870;SDS011;8552;48.120;-1.456;2024-01-11T00:44:59;42.27;;;22.77;;
16870;SDS011;8552;48.120;-1.456;2024-01-11T00:47:25;43.43;;;23.00;;
16870;SDS011;8552;48.120;-1.456;2024-01-11T00:49:51;43.77;;;23.20;;
16870;SDS011;8552;48.120;-1.456;2024-01-11T00:52:17;44.53;;;24.23;;
16870;SDS011;8552;48.120;-1.456;2024-01-11T00:54:43;44.53;;;24.13;;
16870;SDS011;8552;48.120;-1.456;2024-01-11T00:57:09;44.70;;;23.47;;
16870;SDS011;8552;48.120;-1.456;2024-01-11T00:59:34;46.50;;;25.77;;
16870;SDS011;8552;48.120;-1.456;2024-01-11T01:02:00;43.20;;;22.93;;
16870;SDS011;8552;48.120;-1.456;2024-01-11T01:04:26;42.83;;;22.07;;
16870;SDS011;8552;48.120;-1.456;2024-01-11T01:06:52;46.00;;;23.83;;
16870;SDS011;8552;48.120;-1.456;2024-01-11T01:09:18;43.43;;;24.33;;
16870;SDS011;8552;48.120;-1.456;2024-01-11T01:11:43;43.30;;;23.13;;
16870;SDS011;8552;48.120;-1.456;2024-01-11T01:14:09;45.87;;;24.13;;
16870;SDS011;8552;48.120;-1.456;2024-01-11T01:16:35;44.27;;;24.57;;
16870;SDS011;8552;48.120;-1.456;2024-01-11T01:19:01;44.60;;;22.53;;
16870;SDS011;8552;48.120;-1.456;2024-01-11T01:21:27;47.23;;;24.40;;
16870;SDS011;8552;48.120;-1.456;2024-01-11T01:23:53;45.00;;;23.70;;
16870;SDS011;8552;48.120;-1.456;2024-01-11T01:26:19;46.83;;;25.30;;
16870;SDS011;8552;48.120;-1.456;2024-01-11T01:28:45;47.30;;;23.40;;
16870;SDS011;8552;48.120;-1.456;2024-01-11T01:31:11;48.23;;;23.77;;
16870;SDS011;8552;48.120;-1.456;2024-01-11T01:33:37;50.30;;;23.73;;
16870;SDS011;8552;48.120;-1.456;2024-01-11T01:36:07;45.63;;;23.53;;
16870;SDS011;8552;48.120;-1.456;2024-01-11T01:38:34;44.63;;;23.33;;
16870;SDS011;8552;48.120;-1.456;2024-01-11T01:41:00;45.60;;;22.83;;
16870;SDS011;8552;48.120;-1.456;2024-01-11T01:43:26;41.53;;;22.50;;
16870;SDS011;8552;48.120;-1.456;2024-01-11T01:45:52;42.40;;;24.17;;
16870;SDS011;8552;48.120;-1.456;2024-01-11T01:48:19;43.57;;;23.80;;
16870;SDS011;8552;48.120;-1.456;2024-01-11T01:50:46;47.57;;;22.57;;
16870;SDS011;8552;48.120;-1.456;2024-01-11T01:53:19;46.03;;;22.27;;
16870;SDS011;8552;48.120;-1.456;2024-01-11T01:55:47;44.97;;;23.33;;
16870;SDS011;8552;48.120;-1.456;2024-01-11T01:58:14;48.73;;;22.70;;
16870;SDS011;8552;48.120;-1.456;2024-01-11T02:00:43;45.03;;;24.00;;
16870;SDS011;8552;48.120;-1.456;2024-01-11T02:03:10;45.80;;;23.97;;
16870;SDS011;8552;48.120;-1.456;2024-01-11T02:05:37;46.47;;;23.03;;
16870;SDS011;8552;48.120;-1.456;2024-01-11T02:08:03;40.63;;;21.57;;
16870;SDS011;8552;48.120;-1.456;2024-01-11T02:10:33;46.27;;;22.27;;
16870;SDS011;8552;48.120;-1.456;2024-01-11T02:13:00;42.17;;;20.93;;
16870;SDS011;8552;48.120;-1.456;2024-01-11T02:15:27;41.87;;;22.17;;
16870;SDS011;8552;48.120;-1.456;2024-01-11T02:17:53;44.70;;;22.63;;
16870;SDS011;8552;48.120;-1.456;2024-01-11T02:20:18;43.00;;;23.13;;
16870;SDS011;8552;48.120;-1.456;2024-01-11T02:22:46;40.43;;;22.77;;
16870;SDS011;8552;48.120;-1.456;2024-01-11T02:25:15;40.67;;;21.87;;
16870;SDS011;8552;48.120;-1.456;2024-01-11T02:27:45;40.00;;;22.00;;
16870;SDS011;8552;48.120;-1.456;2024-01-11T02:30:12;43.87;;;22.20;;
16870;SDS011;8552;48.120;-1.456;2024-01-11T02:32:38;45.47;;;24.00;;
16870;SDS011;8552;48.120;-1.456;2024-01-11T02:35:04;43.03;;;21.87;;
16870;SDS011;8552;48.120;-1.456;2024-01-11T02:37:30;37.80;;;19.97;;
16870;SDS011;8552;48.120;-1.456;2024-01-11T02:39:56;39.90;;;21.27;;
16870;SDS011;8552;48.120;-1.456;2024-01-11T02:42:22;39.03;;;21.10;;
16870;SDS011;8552;48.120;-1.456;2024-01-11T02:44:47;43.20;;;21.27;;
16870;SDS011;8552;48.120;-1.456;2024-01-11T02:47:13;39.63;;;20.80;;
16870;SDS011;8552;48.120;-1.456;2024-01-11T02:49:39;40.70;;;21.30;;
16870;SDS011;8552;48.120;-1.456;2024-01-11T02:52:04;43.50;;;22.27;;
16870;SDS011;8552;48.120;-1.456;2024-01-11T02:54:30;39.10;;;20.33;;
16870;SDS011;8552;48.120;-1.456;2024-01-11T02:56:56;41.87;;;21.67;;
16870;SDS011;8552;48.120;-1.456;2024-01-11T02:59:22;41.17;;;20.93;;
16870;SDS011;8552;48.120;-1.456;2024-01-11T03:01:49;40.57;;;21.30;;
16870;SDS011;8552;48.120;-1.456;2024-01-11T03:04:15;41.23;;;21.03;;
16870;SDS011;8552;48.120;-1.456;2024-01-11T03:06:41;40.27;;;21.10;;
16870;SDS011;8552;48.120;-1.456;2024-01-11T03:09:07;38.57;;;19.13;;
16870;SDS011;8552;48.120;-1.456;2024-01-11T03:11:33;41.00;;;21.60;;
16870;SDS011;8552;48.120;-1.456;2024-01-11T03:13:58;37.13;;;18.70;;
16870;SDS011;8552;48.120;-1.456;2024-01-11T03:16:24;38.67;;;21.07;;
16870;SDS011;8552;48.120;-1.456;2024-01-11T03:18:50;41.50;;;20.90;;
16870;SDS011;8552;48.120;-1.456;2024-01-11T03:21:16;38.13;;;20.57;;
16870;SDS011;8552;48.120;-1.456;2024-01-11T03:23:41;38.10;;;19.77;;
16870;SDS011;8552;48.120;-1.456;2024-01-11T03:26:14;40.67;;;20.47;;
16870;SDS011;8552;48.120;-1.456;2024-01-11T03:28:40;37.10;;;19.17;;
16870;SDS011;8552;48.120;-1.456;2024-01-11T03:31:07;39.13;;;19.20;;
16870;SDS011;8552;48.120;-1.456;2024-01-11T03:33:33;36.73;;;18.80;;
16870;SDS011;8552;48.120;-1.456;2024-01-11T03:35:59;37.17;;;19.33;;
16870;SDS011;8552;48.120;-1.456;2024-01-11T03:38:25;33.87;;;18.50;;
16870;SDS011;8552;48.120;-1.456;2024-01-11T03:40:50;33.93;;;18.37;;
16870;SDS011;8552;48.120;-1.456;2024-01-11T03:43:17;32.73;;;17.57;;
16870;SDS011;8552;48.120;-1.456;2024-01-11T03:45:43;34.07;;;18.60;;
16870;SDS011;8552;48.120;-1.456;2024-01-11T03:48:09;36.70;;;19.43;;
16870;SDS011;8552;48.120;-1.456;2024-01-11T03:50:35;34.27;;;20.53;;
16870;SDS011;8552;48.120;-1.456;2024-01-11T03:53:03;37.33;;;18.80;;
16870;SDS011;8552;48.120;-1.456;2024-01-11T03:55:29;38.47;;;18.77;;
16870;SDS011;8552;48.120;-1.456;2024-01-11T03:57:56;37.10;;;18.90;;
16870;SDS011;8552;48.120;-1.456;2024-01-11T04:00:22;35.57;;;18.40;;
16870;SDS011;8552;48.120;-1.456;2024-01-11T04:02:48;35.77;;;18.70;;
16870;SDS011;8552;48.120;-1.456;2024-01-11T04:05:14;37.07;;;18.43;;
16870;SDS011;8552;48.120;-1.456;2024-01-11T04:07:40;34.47;;;16.83;;
16870;SDS011;8552;48.120;-1.456;2024-01-11T04:10:06;34.80;;;17.73;;
16870;SDS011;8552;48.120;-1.456;2024-01-11T04:12:35;40.87;;;19.80;;
16870;SDS011;8552;48.120;-1.456;2024-01-11T04:15:01;39.37;;;20.37;;
16870;SDS011;8552;48.120;-1.456;2024-01-11T04:17:27;35.60;;;19.10;;
16870;SDS011;8552;48.120;-1.456;2024-01-11T04:19:53;39.83;;;19.03;;
16870;SDS011;8552;48.120;-1.456;2024-01-11T04:22:18;31.57;;;18.87;;
16870;SDS011;8552;48.120;-1.456;2024-01-11T04:24:44;36.97;;;19.00;;
16870;SDS011;8552;48.120;-1.456;2024-01-11T04:27:10;35.10;;;17.90;;
16870;SDS011;8552;48.120;-1.456;2024-01-11T04:29:36;30.77;;;17.57;;
16870;SDS011;8552;48.120;-1.456;2024-01-11T04:32:01;34.40;;;17.50;;
16870;SDS011;8552;48.120;-1.456;2024-01-11T04:34:27;34.90;;;17.67;;
16870;SDS011;8552;48.120;-1.456;2024-01-11T04:36:55;35.93;;;18.03;;
16870;SDS011;8552;48.120;-1.456;2024-01-11T04:39:21;35.50;;;18.50;;
16870;SDS011;8552;48.120;-1.456;2024-01-11T04:41:47;36.73;;;18.43;;
16870;SDS011;8552;48.120;-1.456;2024-01-11T04:44:13;34.67;;;17.87;;
16870;SDS011;8552;48.120;-1.456;2024-01-11T04:46:40;35.67;;;18.10;;
16870;SDS011;8552;48.120;-1.456;2024-01-11T04:49:06;29.50;;;17.97;;
16870;SDS011;8552;48.120;-1.456;2024-01-11T04:51:32;34.80;;;19.20;;
16870;SDS011;8552;48.120;-1.456;2024-01-11T04:53:58;33.57;;;17.67;;
16870;SDS011;8552;48.120;-1.456;2024-01-11T04:56:25;34.60;;;18.87;;
16870;SDS011;8552;48.120;-1.456;2024-01-11T04:58:51;33.30;;;17.67;;
16870;SDS011;8552;48.120;-1.456;2024-01-11T05:01:18;39.03;;;18.80;;
16870;SDS011;8552;48.120;-1.456;2024-01-11T05:03:44;33.33;;;17.93;;
16870;SDS011;8552;48.120;-1.456;2024-01-11T05:06:20;36.27;;;18.07;;
16870;SDS011;8552;48.120;-1.456;2024-01-11T05:08:47;31.90;;;18.10;;
16870;SDS011;8552;48.120;-1.456;2024-01-11T05:11:17;34.07;;;18.87;;
16870;SDS011;8552;48.120;-1.456;2024-01-11T05:13:43;33.07;;;18.73;;
16870;SDS011;8552;48.120;-1.456;2024-01-11T05:16:30;36.43;;;19.17;;
16870;SDS011;8552;48.120;-1.456;2024-01-11T05:18:57;34.77;;;18.20;;
16870;SDS011;8552;48.120;-1.456;2024-01-11T05:21:23;36.27;;;19.20;;
16870;SDS011;8552;48.120;-1.456;2024-01-11T05:23:50;37.97;;;18.23;;
16870;SDS011;8552;48.120;-1.456;2024-01-11T05:26:18;31.00;;;17.30;;
16870;SDS011;8552;48.120;-1.456;2024-01-11T05:28:44;36.80;;;19.30;;
16870;SDS011;8552;48.120;-1.456;2024-01-11T05:31:11;34.93;;;18.43;;
16870;SDS011;8552;48.120;-1.456;2024-01-11T05:33:38;35.77;;;19.20;;
16870;SDS011;8552;48.120;-1.456;2024-01-11T05:36:04;34.33;;;19.50;;
16870;SDS011;8552;48.120;-1.456;2024-01-11T05:38:30;33.63;;;18.90;;
16870;SDS011;8552;48.120;-1.456;2024-01-11T05:40:57;34.80;;;18.00;;
16870;SDS011;8552;48.120;-1.456;2024-01-11T05:43:23;32.63;;;17.80;;
16870;SDS011;8552;48.120;-1.456;2024-01-11T05:45:49;35.93;;;18.23;;
16870;SDS011;8552;48.120;-1.456;2024-01-11T05:48:16;33.43;;;17.90;;
16870;SDS011;8552;48.120;-1.456;2024-01-11T05:50:42;34.70;;;18.57;;
16870;SDS011;8552;48.120;-1.456;2024-01-11T05:53:08;36.20;;;18.43;;
16870;SDS011;8552;48.120;-1.456;2024-01-11T05:55:34;37.27;;;18.67;;
16870;SDS011;8552;48.120;-1.456;2024-01-11T05:58:00;43.43;;;19.87;;
16870;SDS011;8552;48.120;-1.456;2024-01-11T06:00:26;35.27;;;19.13;;
16870;SDS011;8552;48.120;-1.456;2024-01-11T06:02:52;37.03;;;19.43;;
16870;SDS011;8552;48.120;-1.456;2024-01-11T06:05:18;35.70;;;18.80;;
16870;SDS011;8552;48.120;-1.456;2024-01-11T06:07:45;39.10;;;18.40;;
16870;SDS011;8552;48.120;-1.456;2024-01-11T06:10:11;39.30;;;20.73;;
16870;SDS011;8552;48.120;-1.456;2024-01-11T06:12:37;36.40;;;20.13;;
16870;SDS011;8552;48.120;-1.456;2024-01-11T06:15:03;37.50;;;18.30;;
16870;SDS011;8552;48.120;-1.456;2024-01-11T06:17:32;32.43;;;18.97;;
16870;SDS011;8552;48.120;-1.456;2024-01-11T06:19:58;36.37;;;19.50;;
16870;SDS011;8552;48.120;-1.456;2024-01-11T06:22:24;40.27;;;18.77;;
16870;SDS011;8552;48.120;-1.456;2024-01-11T06:24:50;34.10;;;19.33;;
16870;SDS011;8552;48.120;-1.456;2024-01-11T06:27:16;38.90;;;19.70;;
16870;SDS011;8552;48.120;-1.456;2024-01-11T06:29:42;37.77;;;20.77;;
16870;SDS011;8552;48.120;-1.456;2024-01-11T06:32:08;36.37;;;19.57;;
16870;SDS011;8552;48.120;-1.456;2024-01-11T06:34:34;31.77;;;18.40;;
16870;SDS011;8552;48.120;-1.456;2024-01-11T06:37:01;34.77;;;19.90;;
16870;SDS011;8552;48.120;-1.456;2024-01-11T06:39:28;40.70;;;19.50;;
16870;SDS011;8552;48.120;-1.456;2024-01-11T06:41:54;36.73;;;19.13;;
16870;SDS011;8552;48.120;-1.456;2024-01-11T06:44:21;40.43;;;20.00;;
16870;SDS011;8552;48.120;-1.456;2024-01-11T06:46:47;37.47;;;20.27;;
16870;SDS011;8552;48.120;-1.456;2024-01-11T06:49:13;36.13;;;19.03;;
16870;SDS011;8552;48.120;-1.456;2024-01-11T06:51:39;34.50;;;20.20;;
16870;SDS011;8552;48.120;-1.456;2024-01-11T06:54:05;37.20;;;19.40;;
16870;SDS011;8552;48.120;-1.456;2024-01-11T06:56:32;34.67;;;17.93;;
16870;SDS011;8552;48.120;-1.456;2024-01-11T06:58:58;36.97;;;19.30;;
16870;SDS011;8552;48.120;-1.456;2024-01-11T07:01:24;36.53;;;18.13;;
16870;SDS011;8552;48.120;-1.456;2024-01-11T07:03:50;35.33;;;19.47;;
16870;SDS011;8552;48.120;-1.456;2024-01-11T07:06:16;38.50;;;18.77;;
16870;SDS011;8552;48.120;-1.456;2024-01-11T07:08:43;37.20;;;19.27;;
16870;SDS011;8552;48.120;-1.456;2024-01-11T07:11:09;40.80;;;19.43;;
16870;SDS011;8552;48.120;-1.456;2024-01-11T07:13:36;37.47;;;19.13;;
16870;SDS011;8552;48.120;-1.456;2024-01-11T07:16:02;38.43;;;19.77;;
16870;SDS011;8552;48.120;-1.456;2024-01-11T07:18:28;35.53;;;18.67;;
16870;SDS011;8552;48.120;-1.456;2024-01-11T07:20:59;35.43;;;19.10;;
16870;SDS011;8552;48.120;-1.456;2024-01-11T07:23:25;34.87;;;18.73;;
16870;SDS011;8552;48.120;-1.456;2024-01-11T07:25:51;37.40;;;20.97;;
16870;SDS011;8552;48.120;-1.456;2024-01-11T07:28:17;43.77;;;23.40;;
16870;SDS011;8552;48.120;-1.456;2024-01-11T07:30:44;37.33;;;20.40;;
16870;SDS011;8552;48.120;-1.456;2024-01-11T07:33:13;35.37;;;20.07;;
16870;SDS011;8552;48.120;-1.456;2024-01-11T09:57:41;35.47;;;19.93;;
16870;SDS011;8552;48.120;-1.456;2024-01-11T10:00:07;39.73;;;20.60;;
16870;SDS011;8552;48.120;-1.456;2024-01-11T10:02:34;33.93;;;19.37;;
16870;SDS011;8552;48.120;-1.456;2024-01-11T10:05:00;34.07;;;19.93;;
16870;SDS011;8552;48.120;-1.456;2024-01-11T10:07:27;37.23;;;19.70;;
16870;SDS011;8552;48.120;-1.456;2024-01-11T10:09:54;38.40;;;19.70;;
16870;SDS011;8552;48.120;-1.456;2024-01-11T10:12:21;37.60;;;19.90;;
16870;SDS011;8552;48.120;-1.456;2024-01-11T10:14:50;33.07;;;18.80;;
16870;SDS011;8552;48.120;-1.456;2024-01-11T10:17:17;39.13;;;20.30;;
16870;SDS011;8552;48.120;-1.456;2024-01-11T10:19:43;35.13;;;19.57;;
16870;SDS011;8552;48.120;-1.456;2024-01-11T10:22:09;35.10;;;19.27;;
16870;SDS011;8552;48.120;-1.456;2024-01-11T10:24:38;41.63;;;20.57;;
16870;SDS011;8552;48.120;-1.456;2024-01-11T10:27:04;34.87;;;19.60;;
16870;SDS011;8552;48.120;-1.456;2024-01-11T10:29:31;41.53;;;21.30;;
16870;SDS011;8552;48.120;-1.456;2024-01-11T10:31:57;36.20;;;19.00;;
16870;SDS011;8552;48.120;-1.456;2024-01-11T10:34:24;38.70;;;19.97;;
16870;SDS011;8552;48.120;-1.456;2024-01-11T10:36:52;33.87;;;18.10;;
16870;SDS011;8552;48.120;-1.456;2024-01-11T10:39:20;36.10;;;18.93;;
16870;SDS011;8552;48.120;-1.456;2024-01-11T10:41:49;34.97;;;19.73;;
16870;SDS011;8552;48.120;-1.456;2024-01-11T10:44:20;36.57;;;18.70;;
16870;SDS011;8552;48.120;-1.456;2024-01-11T10:46:47;36.77;;;20.20;;
16870;SDS011;8552;48.120;-1.456;2024-01-11T10:49:16;33.30;;;19.40;;
16870;SDS011;8552;48.120;-1.456;2024-01-11T10:51:44;33.97;;;20.67;;
16870;SDS011;8552;48.120;-1.456;2024-01-11T10:54:10;34.93;;;18.60;;
16870;SDS011;8552;48.120;-1.456;2024-01-11T10:56:41;36.33;;;19.70;;
16870;SDS011;8552;48.120;-1.456;2024-01-11T11:40:42;28.17;;;16.57;;
16870;SDS011;8552;48.120;-1.456;2024-01-11T11:43:22;30.70;;;17.03;;
16870;SDS011;8552;48.120;-1.456;2024-01-11T11:45:54;30.50;;;15.77;;
16870;SDS011;8552;48.120;-1.456;2024-01-11T11:51:06;28.40;;;16.40;;
16870;SDS011;8552;48.120;-1.456;2024-01-11T11:53:34;26.17;;;15.33;;
16870;SDS011;8552;48.120;-1.456;2024-01-11T11:56:03;28.83;;;16.50;;
16870;SDS011;8552;48.120;-1.456;2024-01-11T11:58:30;24.87;;;14.43;;
16870;SDS011;8552;48.120;-1.456;2024-01-11T12:00:57;29.10;;;16.67;;
16870;SDS011;8552;48.120;-1.456;2024-01-11T12:03:25;28.37;;;17.23;;
16870;SDS011;8552;48.120;-1.456;2024-01-11T12:05:54;25.20;;;15.03;;
16870;SDS011;8552;48.120;-1.456;2024-01-11T12:08:21;27.20;;;15.60;;
16870;SDS011;8552;48.120;-1.456;2024-01-11T12:10:47;25.50;;;15.90;;
16870;SDS011;8552;48.120;-1.456;2024-01-11T12:13:13;28.03;;;16.03;;
16870;SDS011;8552;48.120;-1.456;2024-01-11T12:15:40;24.20;;;15.00;;
16870;SDS011;8552;48.120;-1.456;2024-01-11T12:18:06;27.30;;;15.63;;
16870;SDS011;8552;48.120;-1.456;2024-01-11T12:20:36;22.10;;;14.63;;
16870;SDS011;8552;48.120;-1.456;2024-01-11T12:23:02;28.00;;;15.43;;
16870;SDS011;8552;48.120;-1.456;2024-01-11T12:25:28;24.83;;;14.77;;
16870;SDS011;8552;48.120;-1.456;2024-01-11T12:27:55;24.50;;;15.13;;
16870;SDS011;8552;48.120;-1.456;2024-01-11T12:30:25;22.90;;;13.87;;
16870;SDS011;8552;48.120;-1.456;2024-01-11T12:32:51;27.10;;;15.37;;
16870;SDS011;8552;48.120;-1.456;2024-01-11T12:35:18;26.53;;;14.93;;
16870;SDS011;8552;48.120;-1.456;2024-01-11T12:37:54;22.57;;;13.93;;
16870;SDS011;8552;48.120;-1.456;2024-01-11T12:40:23;25.77;;;16.20;;
16870;SDS011;8552;48.120;-1.456;2024-01-11T12:42:49;22.97;;;14.03;;
16870;SDS011;8552;48.120;-1.456;2024-01-11T12:45:16;24.30;;;14.70;;
16870;SDS011;8552;48.120;-1.456;2024-01-11T12:47:43;25.73;;;15.07;;
16870;SDS011;8552;48.120;-1.456;2024-01-11T12:50:16;24.27;;;15.43;;
16870;SDS011;8552;48.120;-1.456;2024-01-11T12:52:45;25.20;;;15.60;;
16870;SDS011;8552;48.120;-1.456;2024-01-11T12:55:18;27.30;;;15.37;;
16870;SDS011;8552;48.120;-1.456;2024-01-11T12:57:44;27.13;;;13.73;;
16870;SDS011;8552;48.120;-1.456;2024-01-11T13:00:11;25.80;;;15.00;;
16870;SDS011;8552;48.120;-1.456;2024-01-11T13:02:38;21.60;;;14.83;;
16870;SDS011;8552;48.120;-1.456;2024-01-11T13:05:05;25.00;;;14.80;;
16870;SDS011;8552;48.120;-1.456;2024-01-11T13:07:34;23.83;;;14.27;;
16870;SDS011;8552;48.120;-1.456;2024-01-11T13:10:02;23.50;;;14.37;;
16870;SDS011;8552;48.120;-1.456;2024-01-11T13:12:29;18.90;;;12.03;;
16870;SDS011;8552;48.120;-1.456;2024-01-11T13:14:56;24.73;;;15.10;;
16870;SDS011;8552;48.120;-1.456;2024-01-11T13:17:27;21.63;;;13.57;;
16870;SDS011;8552;48.120;-1.456;2024-01-11T13:19:55;30.73;;;18.73;;
16870;SDS011;8552;48.120;-1.456;2024-01-11T13:22:21;23.63;;;15.63;;
16870;SDS011;8552;48.120;-1.456;2024-01-11T13:24:47;23.53;;;14.53;;
16870;SDS011;8552;48.120;-1.456;2024-01-11T13:27:13;22.80;;;14.57;;
16870;SDS011;8552;48.120;-1.456;2024-01-11T13:29:45;22.77;;;13.27;;
16870;SDS011;8552;48.120;-1.456;2024-01-11T14:54:14;19.20;;;11.90;;
16870;SDS011;8552;48.120;-1.456;2024-01-11T14:56:41;22.37;;;12.37;;
16870;SDS011;8552;48.120;-1.456;2024-01-11T14:59:08;19.97;;;12.67;;
16870;SDS011;8552;48.120;-1.456;2024-01-11T15:01:35;18.10;;;10.93;;
16870;SDS011;8552;48.120;-1.456;2024-01-11T15:04:02;19.97;;;12.13;;
16870;SDS011;8552;48.120;-1.456;2024-01-11T15:06:30;16.03;;;10.97;;
16870;SDS011;8552;48.120;-1.456;2024-01-11T15:08:57;16.43;;;10.10;;
16870;SDS011;8552;48.120;-1.456;2024-01-11T15:11:23;18.20;;;11.27;;
16870;SDS011;8552;48.120;-1.456;2024-01-11T15:13:49;17.60;;;10.97;;
16870;SDS011;8552;48.120;-1.456;2024-01-11T15:16:15;18.17;;;10.60;;
16870;SDS011;8552;48.120;-1.456;2024-01-11T15:18:40;16.87;;;10.37;;
16870;SDS011;8552;48.120;-1.456;2024-01-11T15:21:06;18.13;;;10.27;;
16870;SDS011;8552;48.120;-1.456;2024-01-11T15:23:32;16.37;;;10.27;;
16870;SDS011;8552;48.120;-1.456;2024-01-11T15:25:59;18.13;;;10.33;;
16870;SDS011;8552;48.120;-1.456;2024-01-11T15:28:25;17.80;;;10.90;;
16870;SDS011;8552;48.120;-1.456;2024-01-11T15:30:51;17.67;;;11.07;;
16870;SDS011;8552;48.120;-1.456;2024-01-11T15:33:16;19.63;;;12.77;;
16870;SDS011;8552;48.120;-1.456;2024-01-11T15:35:42;19.97;;;13.40;;
16870;SDS011;8552;48.120;-1.456;2024-01-11T15:38:08;21.57;;;13.10;;
16870;SDS011;8552;48.120;-1.456;2024-01-11T15:40:33;19.47;;;12.50;;
16870;SDS011;8552;48.120;-1.456;2024-01-11T15:42:59;23.63;;;13.90;;
16870;SDS011;8552;48.120;-1.456;2024-01-11T15:45:26;21.20;;;12.90;;
16870;SDS011;8552;48.120;-1.456;2024-01-11T15:47:51;25.00;;;14.50;;
16870;SDS011;8552;48.120;-1.456;2024-01-11T15:50:17;25.87;;;14.60;;
16870;SDS011;8552;48.120;-1.456;2024-01-11T15:52:43;25.63;;;14.30;;
16870;SDS011;8552;48.120;-1.456;2024-01-11T15:55:09;26.80;;;14.73;;
16870;SDS011;8552;48.120;-1.456;2024-01-11T16:10:32;26.20;;;14.77;;
16870;SDS011;8552;48.120;-1.456;2024-01-11T16:31:03;25.47;;;15.60;;
16870;SDS011;8552;48.120;-1.456;2024-01-11T16:41:26;24.70;;;15.57;;
16870;SDS011;8552;48.120;-1.456;2024-01-11T16:43:52;29.83;;;16.20;;
16870;SDS011;8552;48.120;-1.456;2024-01-11T16:46:18;26.10;;;15.47;;
16870;SDS011;8552;48.120;-1.456;2024-01-11T16:48:46;28.67;;;16.87;;
16870;SDS011;8552;48.120;-1.456;2024-01-11T16:51:12;30.93;;;16.23;;
16870;SDS011;8552;48.120;-1.456;2024-01-11T16:53:42;28.33;;;15.37;;
16870;SDS011;8552;48.120;-1.456;2024-01-11T16:56:10;31.40;;;16.80;;
16870;SDS011;8552;48.120;-1.456;2024-01-11T16:58:38;25.67;;;14.67;;
16870;SDS011;8552;48.120;-1.456;2024-01-11T17:01:05;30.30;;;18.13;;
16870;SDS011;8552;48.120;-1.456;2024-01-11T17:03:31;23.30;;;14.83;;
16870;SDS011;8552;48.120;-1.456;2024-01-11T17:05:57;31.27;;;16.70;;
16870;SDS011;8552;48.120;-1.456;2024-01-11T17:08:23;26.27;;;14.63;;
16870;SDS011;8552;48.120;-1.456;2024-01-11T17:10:48;24.63;;;13.90;;
16870;SDS011;8552;48.120;-1.456;2024-01-11T17:13:14;22.53;;;13.67;;
16870;SDS011;8552;48.120;-1.456;2024-01-11T17:15:40;22.83;;;12.30;;
16870;SDS011;8552;48.120;-1.456;2024-01-11T17:18:06;21.20;;;11.60;;
16870;SDS011;8552;48.120;-1.456;2024-01-11T17:20:32;19.00;;;11.73;;
16870;SDS011;8552;48.120;-1.456;2024-01-11T17:23:01;24.33;;;12.40;;
16870;SDS011;8552;48.120;-1.456;2024-01-11T17:25:27;24.43;;;13.43;;
16870;SDS011;8552;48.120;-1.456;2024-01-11T17:27:53;22.23;;;12.83;;
16870;SDS011;8552;48.120;-1.456;2024-01-11T17:30:18;22.67;;;13.23;;
16870;SDS011;8552;48.120;-1.456;2024-01-11T17:32:44;24.00;;;11.73;;
16870;SDS011;8552;48.120;-1.456;2024-01-11T17:35:10;21.73;;;12.77;;
16870;SDS011;8552;48.120;-1.456;2024-01-11T17:37:37;22.13;;;11.83;;
16870;SDS011;8552;48.120;-1.456;2024-01-11T17:40:03;22.27;;;12.00;;
16870;SDS011;8552;48.120;-1.456;2024-01-11T17:42:32;22.60;;;12.27;;
16870;SDS011;8552;48.120;-1.456;2024-01-11T17:44:58;28.73;;;17.47;;
16870;SDS011;8552;48.120;-1.456;2024-01-11T17:47:24;31.37;;;16.43;;
16870;SDS011;8552;48.120;-1.456;2024-01-11T17:49:50;28.60;;;15.53;;
16870;SDS011;8552;48.120;-1.456;2024-01-11T17:52:15;31.87;;;16.80;;
16870;SDS011;8552;48.120;-1.456;2024-01-11T17:54:41;28.17;;;15.80;;
16870;SDS011;8552;48.120;-1.456;2024-01-11T17:57:08;27.63;;;15.77;;
16870;SDS011;8552;48.120;-1.456;2024-01-11T18:00:03;38.97;;;19.30;;
16870;SDS011;8552;48.120;-1.456;2024-01-11T18:02:30;37.00;;;19.47;;
16870;SDS011;8552;48.120;-1.456;2024-01-11T18:04:55;46.03;;;24.47;;
16870;SDS011;8552;48.120;-1.456;2024-01-11T18:09:56;31.07;;;18.63;;
16870;SDS011;8552;48.120;-1.456;2024-01-11T18:12:22;33.27;;;18.67;;
16870;SDS011;8552;48.120;-1.456;2024-01-11T18:14:48;38.67;;;22.27;;
16870;SDS011;8552;48.120;-1.456;2024-01-11T18:17:14;45.53;;;26.40;;
16870;SDS011;8552;48.120;-1.456;2024-01-11T18:19:40;47.43;;;28.43;;
16870;SDS011;8552;48.120;-1.456;2024-01-11T18:22:06;43.43;;;24.27;;
16870;SDS011;8552;48.120;-1.456;2024-01-11T18:24:35;36.60;;;23.30;;
16870;SDS011;8552;48.120;-1.456;2024-01-11T18:27:00;41.17;;;26.87;;
16870;SDS011;8552;48.120;-1.456;2024-01-11T18:29:31;33.00;;;19.23;;
16870;SDS011;8552;48.120;-1.456;2024-01-11T18:31:56;41.50;;;24.33;;
16870;SDS011;8552;48.120;-1.456;2024-01-11T18:34:22;36.27;;;20.10;;
16870;SDS011;8552;48.120;-1.456;2024-01-11T18:36:48;38.03;;;23.40;;
16870;SDS011;8552;48.120;-1.456;2024-01-11T18:39:13;50.70;;;26.87;;
16870;SDS011;8552;48.120;-1.456;2024-01-11T18:41:41;27.47;;;16.50;;
16870;SDS011;8552;48.120;-1.456;2024-01-11T18:44:06;31.93;;;19.30;;
16870;SDS011;8552;48.120;-1.456;2024-01-11T18:46:39;55.93;;;34.10;;
16870;SDS011;8552;48.120;-1.456;2024-01-11T18:49:06;63.17;;;35.23;;
16870;SDS011;8552;48.120;-1.456;2024-01-11T18:51:32;30.17;;;18.23;;
16870;SDS011;8552;48.120;-1.456;2024-01-11T18:54:05;41.70;;;24.73;;
16870;SDS011;8552;48.120;-1.456;2024-01-11T18:56:31;44.20;;;27.23;;
16870;SDS011;8552;48.120;-1.456;2024-01-11T18:58:57;29.70;;;18.43;;
16870;SDS011;8552;48.120;-1.456;2024-01-11T19:01:22;31.93;;;20.17;;
16870;SDS011;8552;48.120;-1.456;2024-01-11T19:03:50;30.50;;;18.40;;
16870;SDS011;8552;48.120;-1.456;2024-01-11T19:06:17;28.07;;;16.83;;
16870;SDS011;8552;48.120;-1.456;2024-01-11T19:08:43;32.03;;;18.50;;
16870;SDS011;8552;48.120;-1.456;2024-01-11T19:11:09;43.33;;;22.53;;
16870;SDS011;8552;48.120;-1.456;2024-01-11T19:13:34;31.47;;;18.67;;
16870;SDS011;8552;48.120;-1.456;2024-01-11T19:16:05;29.60;;;17.60;;
16870;SDS011;8552;48.120;-1.456;2024-01-11T19:21:14;31.20;;;17.00;;
16870;SDS011;8552;48.120;-1.456;2024-01-11T19:23:42;29.13;;;15.27;;
16870;SDS011;8552;48.120;-1.456;2024-01-11T19:26:12;39.97;;;22.40;;
16870;SDS011;8552;48.120;-1.456;2024-01-11T19:28:38;24.47;;;15.43;;
16870;SDS011;8552;48.120;-1.456;2024-01-11T19:31:04;30.53;;;16.23;;